createdAt,value
2023-02-24T00:02:05.872Z,24.00
2023-02-24T00:07:10.431Z,22.13
2023-02-24T00:12:15.182Z,20.50
2023-02-24T00:17:16.893Z,18.17
2023-02-24T00:22:18.565Z,22.23
2023-02-24T00:27:20.257Z,18.23
2023-02-24T00:32:23.818Z,20.30
2023-02-24T00:37:25.585Z,18.27
2023-02-24T00:42:27.416Z,20.47
2023-02-24T00:47:29.073Z,18.30
2023-02-24T00:52:30.630Z,19.47
2023-02-24T00:57:35.434Z,18.93
2023-02-24T01:02:38.327Z,16.43
2023-02-24T01:07:39.959Z,19.27
2023-02-24T01:12:49.792Z,19.27
2023-02-24T01:17:51.629Z,18.77
2023-02-24T01:22:53.566Z,17.47
2023-02-24T01:27:55.915Z,18.53
2023-02-24T01:32:57.724Z,20.53
2023-02-24T01:38:01.755Z,21.00
2023-02-24T01:43:08.737Z,19.63
2023-02-24T01:48:11.055Z,21.10
2023-02-24T01:53:12.677Z,23.43
2023-02-24T01:58:23.715Z,17.27
2023-02-24T02:03:29.688Z,21.23
2023-02-24T02:08:31.660Z,17.33
2023-02-24T02:13:35.717Z,18.73
2023-02-24T02:19:19.020Z,19.00
2023-02-24T02:24:37.447Z,18.13
2023-02-24T02:30:23.846Z,14.43
2023-02-24T02:35:29.191Z,16.60
2023-02-24T02:40:45.764Z,17.40
2023-02-24T02:46:10.780Z,19.13
2023-02-24T02:51:17.212Z,19.10
2023-02-24T02:56:25.632Z,18.67
2023-02-24T03:01:33.543Z,17.90
2023-02-24T03:06:42.483Z,22.10
2023-02-24T03:11:49.453Z,21.20
2023-02-24T03:16:53.345Z,20.30
2023-02-24T03:22:03.863Z,19.53
2023-02-24T03:27:13.356Z,18.47
2023-02-24T03:32:22.246Z,18.50
2023-02-24T03:37:27.977Z,18.53
2023-02-24T03:42:32.640Z,19.90
2023-02-24T03:47:35.532Z,23.60
2023-02-24T03:52:59.481Z,19.93
2023-02-24T03:58:12.695Z,22.80
2023-02-24T04:03:38.942Z,19.40
2023-02-24T04:09:17.544Z,21.33
2023-02-24T04:14:34.618Z,21.20
2023-02-24T04:19:40.621Z,22.77
2023-02-24T04:24:44.743Z,21.83
2023-02-24T04:29:52.292Z,21.43
2023-02-24T04:35:02.260Z,21.40
2023-02-24T04:40:11.636Z,25.33
2023-02-24T04:45:28.052Z,20.17
2023-02-24T04:50:33.924Z,21.10
2023-02-24T04:55:40.403Z,21.13
2023-02-24T05:00:42.310Z,23.73
2023-02-24T05:06:01.903Z,21.93
2023-02-24T05:11:03.862Z,26.03
2023-02-24T05:16:08.329Z,27.33
2023-02-24T05:21:31.449Z,28.23
2023-02-24T05:26:35.856Z,24.60
2023-02-24T05:31:37.561Z,22.23
2023-02-24T05:36:40.682Z,28.53
2023-02-24T05:41:43.397Z,29.53
2023-02-24T05:46:46.640Z,32.87
2023-02-24T05:51:56.601Z,28.43
2023-02-24T05:57:00.570Z,24.13
2023-02-24T06:02:09.108Z,29.57
2023-02-24T06:07:26.218Z,21.97
2023-02-24T06:12:30.236Z,18.00
2023-02-24T06:17:31.789Z,13.60
2023-02-24T06:22:42.180Z,11.03
2023-02-24T06:27:44.250Z,13.27
2023-02-24T06:32:46.771Z,8.37
2023-02-24T06:37:48.473Z,10.87
2023-02-24T06:42:54.917Z,10.27
2023-02-24T06:47:58.030Z,8.80
2023-02-24T06:53:00.734Z,11.20
2023-02-24T06:58:05.374Z,12.63
2023-02-24T07:03:15.879Z,13.27
2023-02-24T07:08:19.205Z,16.60
2023-02-24T07:13:24.397Z,14.60
2023-02-24T07:18:30.921Z,12.47
2023-02-24T07:23:32.737Z,19.43
2023-02-24T07:28:34.470Z,20.00
2023-02-24T07:33:36.770Z,21.50
2023-02-24T07:38:39.020Z,12.83
2023-02-24T07:43:41.681Z,13.33
2023-02-24T07:48:43.246Z,9.13
2023-02-24T07:53:50.991Z,7.03
2023-02-24T07:59:00.199Z,8.10
2023-02-24T08:04:01.768Z,13.30
2023-02-24T08:09:20.363Z,9.20
2023-02-24T08:14:30.072Z,9.07
2023-02-24T08:19:33.364Z,7.00
2023-02-24T08:24:35.923Z,9.23
2023-02-24T08:29:57.981Z,6.37
2023-02-24T08:35:03.548Z,6.87
2023-02-24T08:40:34.076Z,5.90
2023-02-24T08:45:38.623Z,6.07
2023-02-24T08:50:40.142Z,11.07
2023-02-24T08:55:42.746Z,10.43
2023-02-24T09:00:50.161Z,7.63
2023-02-24T09:05:54.684Z,10.80
2023-02-24T09:10:56.220Z,6.43
2023-02-24T09:15:57.819Z,12.37
2023-02-24T09:21:28.632Z,4.67
2023-02-24T09:26:33.815Z,6.37
2023-02-24T09:31:49.172Z,7.17
2023-02-24T09:37:02.983Z,9.17
2023-02-24T09:42:07.575Z,11.07
2023-02-24T09:47:40.315Z,5.97
2023-02-24T09:52:42.827Z,5.40
2023-02-24T09:58:15.284Z,6.93
2023-02-24T10:03:42.420Z,10.97
2023-02-24T10:08:49.733Z,5.73
2023-02-24T10:13:54.645Z,3.90
2023-02-24T10:19:15.180Z,9.03
2023-02-24T10:24:29.276Z,6.17
2023-02-24T10:29:45.428Z,7.40
2023-02-24T10:34:49.294Z,8.63
2023-02-24T10:39:52.037Z,8.63
2023-02-24T10:45:17.256Z,7.90
2023-02-24T10:50:29.796Z,6.10
2023-02-24T10:55:43.971Z,8.00
2023-02-24T11:01:05.928Z,8.13
2023-02-24T11:06:42.410Z,7.77
2023-02-24T11:12:02.852Z,8.10
2023-02-24T11:17:17.413Z,10.37
2023-02-24T11:22:24.992Z,5.00
2023-02-24T11:27:27.693Z,6.87
2023-02-24T11:32:55.072Z,8.23
2023-02-24T11:38:26.912Z,5.70
2023-02-24T11:43:30.059Z,6.57
2023-02-24T11:48:36.175Z,8.30
2023-02-24T11:53:56.629Z,5.77
2023-02-24T11:59:06.390Z,7.23
2023-02-24T12:04:30.047Z,4.13
2023-02-24T12:09:38.183Z,8.63
2023-02-24T12:14:53.882Z,5.77
2023-02-24T12:19:58.824Z,4.63
2023-02-24T12:25:00.512Z,5.90
2023-02-24T12:30:48.564Z,7.63
2023-02-24T12:36:05.348Z,8.13
2023-02-24T12:41:15.601Z,5.77
2023-02-24T12:46:22.317Z,5.93
2023-02-24T12:51:42.254Z,6.50
2023-02-24T12:57:02.335Z,5.47
2023-02-24T13:02:25.400Z,3.90
2023-02-24T13:08:06.754Z,5.37
2023-02-24T13:13:26.111Z,3.60
2023-02-24T13:18:30.418Z,5.30
2023-02-24T13:23:32.211Z,4.23
2023-02-24T13:28:38.739Z,3.93
2023-02-24T13:33:44.933Z,4.03
2023-02-24T13:38:49.009Z,4.57
2023-02-24T13:44:01.827Z,4.13
2023-02-24T13:49:22.911Z,7.30
2023-02-24T13:54:50.154Z,4.00
2023-02-24T14:00:10.198Z,4.23
2023-02-24T14:05:26.400Z,5.70
2023-02-24T14:10:31.501Z,5.70
2023-02-24T14:15:33.778Z,5.13
2023-02-24T14:20:37.916Z,4.67
2023-02-24T14:25:39.914Z,5.00
2023-02-24T14:30:41.625Z,5.93
2023-02-24T14:35:46.166Z,6.50
2023-02-24T14:40:48.779Z,3.80
2023-02-24T14:45:59.863Z,5.60
2023-02-24T14:51:09.558Z,11.47
2023-02-24T14:56:12.346Z,6.67
2023-02-24T15:01:52.596Z,5.77
2023-02-24T15:06:54.406Z,4.33
2023-02-24T15:11:56.455Z,4.97
2023-02-24T15:17:11.047Z,5.73
2023-02-24T15:22:27.327Z,9.07
2023-02-24T15:27:29.093Z,5.40
2023-02-24T15:32:32.714Z,6.50
2023-02-24T15:37:41.999Z,8.93
2023-02-24T15:42:52.850Z,5.83
2023-02-24T15:47:59.571Z,4.63
2023-02-24T15:53:04.195Z,5.87
2023-02-24T15:58:05.764Z,6.17
2023-02-24T16:03:07.377Z,6.80
2023-02-24T16:08:14.055Z,6.30
2023-02-24T16:13:19.683Z,7.77
2023-02-24T16:18:23.401Z,4.13
2023-02-24T16:23:26.149Z,8.80
2023-02-24T16:28:27.872Z,5.00
2023-02-24T16:33:29.554Z,7.40
2023-02-24T16:38:31.347Z,6.23
2023-02-24T16:43:35.321Z,5.37
2023-02-24T16:48:38.750Z,6.83
2023-02-24T16:53:40.697Z,5.90
2023-02-24T16:58:42.343Z,6.47
2023-02-24T17:03:46.461Z,4.20
2023-02-24T17:08:48.911Z,5.97
2023-02-24T17:13:50.533Z,4.17
2023-02-24T17:18:52.064Z,4.93
2023-02-24T17:23:53.657Z,4.87
2023-02-24T17:28:55.575Z,8.00
2023-02-24T17:33:57.183Z,5.07
2023-02-24T17:38:58.759Z,4.50
2023-02-24T17:44:00.442Z,4.77
2023-02-24T17:49:04.915Z,5.87
2023-02-24T17:54:06.887Z,9.40
2023-02-24T17:59:08.567Z,6.17
2023-02-24T18:04:14.706Z,6.53
2023-02-24T18:09:16.725Z,8.53
2023-02-24T18:14:18.813Z,7.90
2023-02-24T18:19:20.562Z,10.63
2023-02-24T18:24:22.831Z,8.07
2023-02-24T18:29:24.528Z,8.43
2023-02-24T18:34:26.049Z,10.33
2023-02-24T18:39:29.009Z,5.73
2023-02-24T18:44:31.122Z,7.10
2023-02-24T18:49:32.657Z,5.03
2023-02-24T18:54:34.397Z,5.23
2023-02-24T18:59:35.903Z,6.83
2023-02-24T19:04:38.902Z,7.00
2023-02-24T19:09:41.862Z,9.00
2023-02-24T19:14:44.358Z,10.90
2023-02-24T19:19:46.685Z,11.57
2023-02-24T19:24:48.306Z,10.93
2023-02-24T19:29:50.357Z,7.93
2023-02-24T19:34:51.995Z,11.17
2023-02-24T19:39:54.803Z,9.70
2023-02-24T19:44:56.435Z,10.63
2023-02-24T19:49:58.328Z,12.90
2023-02-24T19:54:59.923Z,7.60
2023-02-24T20:00:03.907Z,9.33
2023-02-24T20:05:13.710Z,7.33
2023-02-24T20:10:16.777Z,7.03
2023-02-24T20:15:18.455Z,4.83
2023-02-24T20:20:20.305Z,7.47
2023-02-24T20:25:21.962Z,6.97
2023-02-24T20:30:23.464Z,7.37
2023-02-24T20:35:26.266Z,3.73
2023-02-24T20:40:27.841Z,6.00
2023-02-24T20:45:29.491Z,5.87
2023-02-24T20:50:31.135Z,6.43
2023-02-24T20:55:32.730Z,3.90
2023-02-24T21:00:34.390Z,5.50
2023-02-24T21:05:36.195Z,4.47
2023-02-24T21:10:37.853Z,3.80
2023-02-24T21:15:39.590Z,5.00
2023-02-24T21:20:41.381Z,7.97
2023-02-24T21:25:43.046Z,13.17
2023-02-24T21:30:45.257Z,7.20
2023-02-24T21:36:04.225Z,5.97
2023-02-24T21:41:07.992Z,3.60
2023-02-24T21:46:10.495Z,6.43
2023-02-24T21:51:13.566Z,6.90
2023-02-24T21:56:17.382Z,3.97
2023-02-24T22:01:28.522Z,4.70
2023-02-24T22:06:33.149Z,6.00
2023-02-24T22:11:37.067Z,4.07
2023-02-24T22:16:39.414Z,8.10
2023-02-24T22:21:42.413Z,2.90
2023-02-24T22:26:44.605Z,9.27
2023-02-24T22:31:49.476Z,4.37
2023-02-24T22:36:51.796Z,7.43
2023-02-24T22:41:54.207Z,6.10
2023-02-24T22:46:57.042Z,4.80
2023-02-24T22:51:58.638Z,7.67
2023-02-24T22:57:00.236Z,6.40
2023-02-24T23:02:01.777Z,7.93
2023-02-24T23:07:03.819Z,9.30
2023-02-24T23:12:06.152Z,9.17
2023-02-24T23:17:08.709Z,9.23
2023-02-24T23:22:10.260Z,9.60
2023-02-24T23:27:12.141Z,5.13
2023-02-24T23:32:14.402Z,10.27
2023-02-24T23:37:16.760Z,7.57
2023-02-24T23:42:19.677Z,21.57
2023-02-24T23:47:21.315Z,7.37
2023-02-24T23:52:23.967Z,10.17
2023-02-24T23:57:27.169Z,13.93
